Time;durP1;ratioP1;P1;durP2;ratioP2;P2;SDS_P1;SDS_P2;PMS_P1;PMS_P2;Temp;Humidity;BMP_temperature;BMP_pressure;BME280_temperature;BME280_humidity;BME280_pressure;Samples;Min_cycle;Max_cycle;Signal;HPM_P1;HPM_P2
2021/08/13 00:00:48;;;;;;;;;;;21.50;1.00;;;;;;5033130;28;20263;-65
2021/08/13 00:03:14;;;;;;;;;;;21.50;1.00;;;;;;5033291;28;19916;-66
2021/08/13 00:05:40;;;;;;;;;;;21.40;1.00;;;;;;5033299;28;19909;-66
2021/08/13 00:08:06;;;;;;;;;;;21.40;1.00;;;;;;5032742;28;19909;-66
2021/08/13 00:10:31;;;;;;;;;;;21.40;1.00;;;;;;5032706;28;19963;-65
2021/08/13 00:12:58;;;;;;;;;;;21.40;1.00;;;;;;5032742;28;19921;-66
2021/08/13 00:15:24;;;;;;;;;;;21.40;1.00;;;;;;5033192;28;19920;-66
2021/08/13 00:17:50;;;;;;;;;;;21.40;1.00;;;;;;5032853;28;19916;-66
2021/08/13 00:20:16;;;;;;;;;;;21.40;1.00;;;;;;5033032;28;19913;-66
2021/08/13 00:22:42;;;;;;;;;;;21.40;1.00;;;;;;5032610;28;19925;-66
2021/08/13 00:25:07;;;;;;;;;;;21.40;1.00;;;;;;5033087;28;20362;-67
2021/08/13 00:27:33;;;;;;;;;;;21.30;1.00;;;;;;5032049;28;20318;-66
2021/08/13 00:29:58;;;;;;;;;;;21.30;1.00;;;;;;5032966;28;19928;-66
2021/08/13 00:32:23;;;;;;;;;;;21.20;12.30;;;;;;5032712;28;19920;-66
2021/08/13 00:34:49;;;;;;;;;;;21.10;99.90;;;;;;5032426;28;19991;-66
2021/08/13 00:37:16;;;;;;;;;;;21.10;99.90;;;;;;5032637;28;19916;-67
2021/08/13 00:39:41;;;;;;;;;;;21.00;99.90;;;;;;5032345;28;20393;-66
2021/08/13 00:42:07;;;;;;;;;;;21.00;99.90;;;;;;5032763;28;19963;-67
2021/08/13 00:44:32;;;;;;;;;;;21.00;99.90;;;;;;5032085;28;20289;-67
2021/08/13 00:46:58;;;;;;;;;;;20.90;99.90;;;;;;5032243;28;20058;-67
2021/08/13 00:49:23;;;;;;;;;;;20.90;99.90;;;;;;5030454;28;19913;-67
2021/08/13 00:51:49;;;;;;;;;;;20.90;99.90;;;;;;5032569;28;19932;-67
2021/08/13 00:54:14;;;;;;;;;;;20.90;99.90;;;;;;5032309;28;19916;-67
2021/08/13 00:56:40;;;;;;;;;;;20.90;99.90;;;;;;5032453;28;19932;-67
2021/08/13 00:59:09;;;;;;;;;;;20.90;99.90;;;;;;5030804;28;19913;-66
2021/08/13 01:01:35;;;;;;;;;;;20.90;99.90;;;;;;5032454;28;19916;-67
2021/08/13 01:04:01;;;;;;;;;;;20.90;99.90;;;;;;5032440;28;20004;-67
2021/08/13 01:06:26;;;;;;;;;;;20.90;99.90;;;;;;5032296;28;19953;-67
2021/08/13 01:08:52;;;;;;;;;;;20.90;99.90;;;;;;5031152;28;19918;-67
2021/08/13 01:11:25;;;;;;;;;;;20.80;99.90;;;;;;5031999;28;19916;-67
2021/08/13 01:13:55;;;;;;;;;;;20.80;99.90;;;;;;5031489;28;19913;-67
2021/08/13 01:16:21;;;;;;;;;;;20.80;1.00;;;;;;5032260;28;19956;-67
2021/08/13 01:18:49;;;;;;;;;;;20.80;1.00;;;;;;5031311;28;20354;-67
2021/08/13 01:21:18;;;;;;;;;;;20.70;1.00;;;;;;5031596;28;19913;-67
2021/08/13 01:23:44;;;;;;;;;;;20.70;1.00;;;;;;5032216;28;20315;-67
2021/08/13 01:26:09;;;;;;;;;;;20.60;1.00;;;;;;5031986;28;19933;-66
2021/08/13 01:28:54;;;;;;;;;;;20.60;1.00;;;;;;5030623;28;20421;-66
2021/08/13 01:31:21;;;;;;;;;;;20.50;1.00;;;;;;5031438;28;19944;-66
2021/08/13 01:33:48;;;;;;;;;;;20.40;1.00;;;;;;5031593;28;20315;-66
2021/08/13 01:36:15;;;;;;;;;;;20.40;1.00;;;;;;5031813;28;20043;-67
2021/08/13 01:38:41;;;;;;;;;;;20.30;1.00;;;;;;5030679;28;20095;-67
2021/08/13 01:41:08;;;;;;;;;;;20.30;1.00;;;;;;5031131;28;19913;-67
2021/08/13 01:43:34;;;;;;;;;;;20.30;1.00;;;;;;5030924;28;19909;-66
2021/08/13 01:46:00;;;;;;;;;;;20.30;1.00;;;;;;5031512;28;20216;-68
2021/08/13 01:48:26;;;;;;;;;;;20.30;1.00;;;;;;5030916;28;19928;-67
2021/08/13 01:50:52;;;;;;;;;;;20.30;1.00;;;;;;5031295;28;19909;-65
2021/08/13 01:53:18;;;;;;;;;;;20.30;1.00;;;;;;5030946;28;20051;-66
2021/08/13 01:55:44;;;;;;;;;;;20.40;1.00;;;;;;5031287;28;20303;-67
2021/08/13 01:58:10;;;;;;;;;;;20.40;1.00;;;;;;5030204;28;19917;-67
2021/08/13 02:00:35;;;;;;;;;;;20.30;1.00;;;;;;5031035;28;20023;-67
2021/08/13 02:03:01;;;;;;;;;;;20.30;1.00;;;;;;5031154;28;20239;-67
2021/08/13 02:05:28;;;;;;;;;;;20.30;1.00;;;;;;5031197;28;19953;-67
2021/08/13 02:07:54;;;;;;;;;;;20.30;1.00;;;;;;5030352;28;19956;-67
2021/08/13 02:10:20;;;;;;;;;;;20.30;1.00;;;;;;5031016;28;19909;-65
2021/08/13 02:12:46;;;;;;;;;;;20.30;1.00;;;;;;5030794;28;19910;-67
2021/08/13 02:15:12;;;;;;;;;;;20.40;1.00;;;;;;5030924;28;19955;-67
2021/08/13 02:17:47;;;;;;;;;;;20.30;1.00;;;;;;5030062;28;19951;-67
2021/08/13 02:20:14;;;;;;;;;;;20.30;1.00;;;;;;5030870;28;20345;-68
2021/08/13 02:22:40;;;;;;;;;;;20.30;1.00;;;;;;5030812;28;19917;-67
2021/08/13 02:25:06;;;;;;;;;;;20.30;1.00;;;;;;5030854;28;19913;-67
2021/08/13 02:27:32;;;;;;;;;;;20.40;1.00;;;;;;5030057;28;20287;-67
2021/08/13 02:29:57;;;;;;;;;;;20.30;1.00;;;;;;5030124;28;20003;-66
2021/08/13 02:32:26;;;;;;;;;;;20.30;1.00;;;;;;5030681;28;20039;-66
2021/08/13 02:34:52;;;;;;;;;;;20.20;1.00;;;;;;5030439;28;20455;-66
2021/08/13 02:37:20;;;;;;;;;;;20.10;1.00;;;;;;5029929;28;19917;-65
2021/08/13 02:39:46;;;;;;;;;;;20.10;1.00;;;;;;5030663;28;19920;-65
2021/08/13 02:42:15;;;;;;;;;;;20.10;1.00;;;;;;5031168;28;19909;-65
2021/08/13 02:44:43;;;;;;;;;;;20.00;1.00;;;;;;5030518;28;20382;-66
2021/08/13 02:47:10;;;;;;;;;;;20.00;1.00;;;;;;5030642;28;19916;-66
2021/08/13 02:49:41;;;;;;;;;;;20.00;1.00;;;;;;5029577;28;20409;-66
2021/08/13 02:52:07;;;;;;;;;;;20.00;1.00;;;;;;5029212;28;19909;-66
2021/08/13 02:54:34;;;;;;;;;;;20.00;1.00;;;;;;5030421;28;19909;-66
2021/08/13 02:57:01;;;;;;;;;;;20.00;1.00;;;;;;5030569;28;19996;-66
2021/08/13 02:59:28;;;;;;;;;;;20.00;1.00;;;;;;5029402;28;20051;-66
2021/08/13 03:01:55;;;;;;;;;;;19.90;1.00;;;;;;5030209;28;19909;-66
2021/08/13 03:04:21;;;;;;;;;;;19.90;1.00;;;;;;5030280;28;19917;-66
2021/08/13 03:06:48;;;;;;;;;;;19.90;1.00;;;;;;5030688;28;19924;-66
2021/08/13 03:09:14;;;;;;;;;;;19.80;1.00;;;;;;5029728;28;19933;-66
2021/08/13 03:11:40;;;;;;;;;;;19.80;1.00;;;;;;5031339;28;20358;-66
2021/08/13 03:14:06;;;;;;;;;;;19.80;1.00;;;;;;5033702;28;20003;-66
2021/08/13 03:16:33;;;;;;;;;;;19.80;1.00;;;;;;5034313;28;19955;-66
2021/08/13 03:18:59;;;;;;;;;;;19.80;1.00;;;;;;5033569;28;19913;-66
2021/08/13 03:21:24;;;;;;;;;;;19.80;1.00;;;;;;5034178;28;19936;-66
2021/08/13 03:23:50;;;;;;;;;;;19.70;1.00;;;;;;5033874;28;19915;-65
2021/08/13 03:26:16;;;;;;;;;;;19.70;1.00;;;;;;5033855;28;19996;-66
2021/08/13 03:28:41;;;;;;;;;;;19.70;1.00;;;;;;5032868;28;19916;-66
2021/08/13 03:31:07;;;;;;;;;;;19.60;1.00;;;;;;5033743;28;19917;-66
2021/08/13 03:33:32;;;;;;;;;;;19.60;1.00;;;;;;5033535;28;19963;-66
2021/08/13 03:35:58;;;;;;;;;;;19.70;1.00;;;;;;5033641;28;19910;-66
2021/08/13 03:38:24;;;;;;;;;;;19.70;1.00;;;;;;5032966;28;19924;-66
2021/08/13 03:40:49;;;;;;;;;;;19.70;1.00;;;;;;5033650;28;19909;-66
2021/08/13 03:43:15;;;;;;;;;;;19.60;1.00;;;;;;5031743;28;19913;-66
2021/08/13 03:45:40;;;;;;;;;;;19.60;1.00;;;;;;5033674;28;19920;-66
2021/08/13 03:48:06;;;;;;;;;;;19.60;1.00;;;;;;5032460;28;19913;-67
2021/08/13 03:50:32;;;;;;;;;;;19.60;1.00;;;;;;5033578;28;19913;-68
2021/08/13 03:52:57;;;;;;;;;;;19.60;1.00;;;;;;5033513;28;19932;-67
2021/08/13 03:55:23;;;;;;;;;;;19.70;1.00;;;;;;5033797;28;19917;-67
2021/08/13 03:57:48;;;;;;;;;;;19.70;1.00;;;;;;5032397;28;20288;-67
2021/08/13 04:00:14;;;;;;;;;;;19.70;1.00;;;;;;5033027;28;19924;-66
2021/08/13 04:02:40;;;;;;;;;;;19.70;1.00;;;;;;5033149;28;19909;-67
2021/08/13 04:05:05;;;;;;;;;;;19.70;1.00;;;;;;5033463;28;19963;-67
2021/08/13 04:07:31;;;;;;;;;;;19.60;1.00;;;;;;5033009;28;19909;-67
2021/08/13 04:09:57;;;;;;;;;;;19.60;1.00;;;;;;5033046;28;20378;-67
2021/08/13 04:12:22;;;;;;;;;;;19.60;1.00;;;;;;5032786;28;19956;-67
2021/08/13 04:14:48;;;;;;;;;;;19.70;1.00;;;;;;5032763;28;19909;-67
2021/08/13 04:17:13;;;;;;;;;;;19.70;1.00;;;;;;5032750;28;19909;-67
2021/08/13 04:19:41;;;;;;;;;;;19.70;1.00;;;;;;5032422;28;19967;-66
2021/08/13 04:22:06;;;;;;;;;;;19.70;1.00;;;;;;5032513;28;19913;-66
2021/08/13 04:24:33;;;;;;;;;;;19.70;1.00;;;;;;5032497;28;19916;-66
2021/08/13 04:27:02;;;;;;;;;;;19.70;1.00;;;;;;5033105;28;19954;-67
2021/08/13 04:29:27;;;;;;;;;;;19.60;1.00;;;;;;5031644;28;19917;-67
2021/08/13 04:31:53;;;;;;;;;;;19.60;1.00;;;;;;5032712;28;19974;-67
2021/08/13 04:34:18;;;;;;;;;;;19.60;1.00;;;;;;5032702;28;19909;-67
2021/08/13 04:36:44;;;;;;;;;;;19.60;1.00;;;;;;5032543;28;19940;-67
2021/08/13 04:39:10;;;;;;;;;;;19.70;1.00;;;;;;5031895;28;19936;-67
2021/08/13 04:41:35;;;;;;;;;;;19.80;1.00;;;;;;5032941;28;19920;-68
2021/08/13 04:44:01;;;;;;;;;;;19.90;1.00;;;;;;5032139;28;19916;-67
2021/08/13 04:46:26;;;;;;;;;;;20.00;1.00;;;;;;5032164;28;20401;-67
2021/08/13 04:48:52;;;;;;;;;;;20.10;1.00;;;;;;5031606;28;19955;-68
2021/08/13 04:51:17;;;;;;;;;;;20.20;1.00;;;;;;5032323;28;19955;-68
2021/08/13 04:53:43;;;;;;;;;;;20.30;1.00;;;;;;5032152;28;19909;-67
2021/08/13 04:56:08;;;;;;;;;;;20.50;1.00;;;;;;5032472;28;19937;-67
2021/08/13 04:58:34;;;;;;;;;;;20.60;1.00;;;;;;5030756;28;20205;-67
2021/08/13 05:00:59;;;;;;;;;;;20.70;1.00;;;;;;5032157;28;20315;-67
2021/08/13 05:03:26;;;;;;;;;;;20.90;1.00;;;;;;5032248;28;19924;-67
2021/08/13 05:05:52;;;;;;;;;;;21.00;1.00;;;;;;5032112;28;19992;-68
2021/08/13 05:08:18;;;;;;;;;;;21.00;1.00;;;;;;5031452;28;20012;-67
2021/08/13 05:10:43;;;;;;;;;;;21.10;1.00;;;;;;5031557;28;19916;-67
2021/08/13 05:13:09;;;;;;;;;;;21.10;1.00;;;;;;5031382;28;20350;-68
2021/08/13 05:15:34;;;;;;;;;;;21.10;1.00;;;;;;5032007;28;19909;-67
2021/08/13 05:18:00;;;;;;;;;;;21.10;99.90;;;;;;5031336;28;19909;-67
2021/08/13 05:20:25;;;;;;;;;;;21.00;99.90;;;;;;5032002;28;20090;-68
2021/08/13 05:22:51;;;;;;;;;;;21.00;99.90;;;;;;5031648;28;19916;-68
2021/08/13 05:25:16;;;;;;;;;;;21.00;99.90;;;;;;5032029;28;19909;-68
2021/08/13 05:27:42;;;;;;;;;;;21.00;99.90;;;;;;5030764;28;20238;-67
2021/08/13 05:30:08;;;;;;;;;;;21.10;99.90;;;;;;5031637;28;19925;-67
2021/08/13 05:32:40;;;;;;;;;;;21.30;99.90;;;;;;5031731;28;19975;-66
2021/08/13 05:35:07;;;;;;;;;;;21.40;99.90;;;;;;5030768;28;20000;-68
2021/08/13 05:37:33;;;;;;;;;;;21.60;99.90;;;;;;5030763;28;19913;-68
2021/08/13 05:39:58;;;;;;;;;;;21.80;1.00;;;;;;5031301;28;19920;-67
2021/08/13 05:42:24;;;;;;;;;;;21.90;1.00;;;;;;5031700;28;19909;-67
2021/08/13 05:44:49;;;;;;;;;;;22.10;99.90;;;;;;5030928;28;19967;-68
2021/08/13 05:47:15;;;;;;;;;;;22.20;98.50;;;;;;5030850;28;20294;-68
2021/08/13 05:49:40;;;;;;;;;;;22.30;1.00;;;;;;5031093;28;19909;-68
2021/08/13 05:52:06;;;;;;;;;;;22.30;99.90;;;;;;5031690;28;19913;-68
2021/08/13 05:54:31;;;;;;;;;;;22.30;42.90;;;;;;5031118;28;19913;-68
2021/08/13 05:56:57;;;;;;;;;;;22.40;1.00;;;;;;5031057;28;20388;-68
2021/08/13 05:59:23;;;;;;;;;;;22.40;1.00;;;;;;5029710;28;19917;-67
2021/08/13 06:01:48;;;;;;;;;;;22.80;99.90;;;;;;5031498;28;19909;-68
2021/08/13 06:04:14;;;;;;;;;;;23.60;77.30;;;;;;5030896;28;20012;-68
2021/08/13 06:06:42;;;;;;;;;;;24.50;1.00;;;;;;5031160;28;19909;-68
2021/08/13 06:09:08;;;;;;;;;;;25.30;64.50;;;;;;5029985;28;19913;-68
2021/08/13 06:11:33;;;;;;;;;;;25.50;1.00;;;;;;5031069;28;19909;-68
2021/08/13 06:13:59;;;;;;;;;;;25.30;1.00;;;;;;5030368;28;20259;-68
2021/08/13 06:16:24;;;;;;;;;;;25.30;1.00;;;;;;5031336;28;19909;-68
2021/08/13 06:18:50;;;;;;;;;;;25.50;1.00;;;;;;5030070;28;20342;-68
2021/08/13 06:21:16;;;;;;;;;;;25.70;1.00;;;;;;5030460;28;19920;-67
2021/08/13 06:23:41;;;;;;;;;;;26.40;1.00;;;;;;5030797;28;19917;-68
2021/08/13 06:26:08;;;;;;;;;;;27.50;1.00;;;;;;5029549;28;19913;-67
2021/08/13 06:28:33;;;;;;;;;;;28.70;99.90;;;;;;5029502;28;20321;-65
2021/08/13 06:30:59;;;;;;;;;;;29.90;99.90;;;;;;5031263;28;20020;-67
2021/08/13 06:33:24;;;;;;;;;;;31.00;99.90;;;;;;5030053;28;19928;-67
2021/08/13 06:35:50;;;;;;;;;;;32.20;99.90;;;;;;5030830;28;19917;-67
2021/08/13 06:38:15;;;;;;;;;;;33.10;99.90;;;;;;5030032;28;20629;-67
2021/08/13 06:40:41;;;;;;;;;;;33.70;99.90;;;;;;5030632;28;19914;-67
2021/08/13 06:43:06;;;;;;;;;;;34.60;99.90;;;;;;5030456;28;20285;-67
2021/08/13 06:45:32;;;;;;;;;;;35.50;99.90;;;;;;5030585;28;19971;-67
2021/08/13 06:47:57;;;;;;;;;;;36.10;99.90;;;;;;5033183;28;20008;-67
2021/08/13 06:50:23;;;;;;;;;;;36.70;99.90;;;;;;5034677;28;19920;-68
2021/08/13 06:52:49;;;;;;;;;;;37.20;99.90;;;;;;5034603;28;20274;-68
2021/08/13 06:55:14;;;;;;;;;;;37.40;99.90;;;;;;5034728;28;19948;-68
2021/08/13 06:57:40;;;;;;;;;;;37.70;99.90;;;;;;5032996;28;19921;-68
2021/08/13 07:00:09;;;;;;;;;;;38.50;99.90;;;;;;5034472;28;19917;-68
2021/08/13 07:02:34;;;;;;;;;;;39.00;99.90;;;;;;5034455;28;20337;-68
2021/08/13 07:05:00;;;;;;;;;;;39.50;99.90;;;;;;5034608;28;19915;-67
2021/08/13 07:07:25;;;;;;;;;;;39.90;99.90;;;;;;5033525;28;20369;-68
2021/08/13 07:09:51;;;;;;;;;;;40.10;99.90;;;;;;5034172;28;19952;-68
2021/08/13 07:12:17;;;;;;;;;;;40.60;99.90;;;;;;5034290;28;19909;-67
2021/08/13 07:14:43;;;;;;;;;;;40.70;99.90;;;;;;5034038;28;20255;-67
2021/08/13 07:17:09;;;;;;;;;;;40.80;99.90;;;;;;5034362;28;19909;-67
2021/08/13 07:19:34;;;;;;;;;;;40.80;99.90;;;;;;5033395;28;20270;-67
2021/08/13 07:22:00;;;;;;;;;;;41.30;99.90;;;;;;5034146;28;19913;-67
2021/08/13 07:24:25;;;;;;;;;;;41.80;99.90;;;;;;5033979;28;19960;-67
2021/08/13 07:26:51;;;;;;;;;;;42.30;99.90;;;;;;5034106;28;19979;-67
2021/08/13 07:29:16;;;;;;;;;;;42.90;99.90;;;;;;5032882;28;20358;-68
2021/08/13 07:31:42;;;;;;;;;;;43.00;99.90;;;;;;5033589;28;19920;-67
2021/08/13 07:34:07;;;;;;;;;;;43.30;99.90;;;;;;5033639;28;20119;-67
2021/08/13 07:36:33;;;;;;;;;;;43.20;99.90;;;;;;5033805;28;19909;-67
2021/08/13 07:38:58;;;;;;;;;;;43.20;99.90;;;;;;5033120;28;19971;-67
2021/08/13 07:41:24;;;;;;;;;;;43.40;99.90;;;;;;5033668;28;20021;-67
2021/08/13 07:43:49;;;;;;;;;;;43.60;99.90;;;;;;5032827;28;19909;-67
2021/08/13 07:46:15;;;;;;;;;;;43.80;99.90;;;;;;5033776;28;20055;-67
2021/08/13 07:48:40;;;;;;;;;;;44.50;98.60;;;;;;5033010;28;19916;-67
2021/08/13 07:51:06;;;;;;;;;;;44.60;95.00;;;;;;5033633;28;20298;-67
2021/08/13 07:53:31;;;;;;;;;;;45.10;91.80;;;;;;5033460;28;19999;-67
2021/08/13 07:55:57;;;;;;;;;;;45.50;88.30;;;;;;5033539;28;19909;-68
2021/08/13 07:58:22;;;;;;;;;;;46.30;83.60;;;;;;5031894;28;19917;-68
2021/08/13 08:00:48;;;;;;;;;;;46.50;77.40;;;;;;5033435;28;19913;-68
2021/08/13 08:03:13;;;;;;;;;;;47.00;71.90;;;;;;5034083;28;20298;-68
2021/08/13 08:05:39;;;;;;;;;;;46.90;63.30;;;;;;5033793;28;19955;-67
2021/08/13 08:08:05;;;;;;;;;;;47.20;58.60;;;;;;5032342;28;20321;-68
2021/08/13 08:10:31;;;;;;;;;;;46.80;52.70;;;;;;5033052;28;19909;-67
2021/08/13 08:12:56;;;;;;;;;;;46.10;48.00;;;;;;5032696;28;19995;-67
2021/08/13 08:15:22;;;;;;;;;;;45.50;43.60;;;;;;5033070;28;19913;-67
2021/08/13 08:17:47;;;;;;;;;;;45.40;42.00;;;;;;5032274;28;19913;-68
2021/08/13 08:20:13;;;;;;;;;;;45.90;41.00;;;;;;5031338;28;19913;-68
2021/08/13 08:22:39;;;;;;;;;;;46.80;40.70;;;;;;5032930;28;19909;-68
2021/08/13 08:25:05;;;;;;;;;;;47.30;39.60;;;;;;5032801;28;20436;-68
2021/08/13 08:27:30;;;;;;;;;;;47.90;36.90;;;;;;5032509;28;19913;-68
2021/08/13 08:29:56;;;;;;;;;;;48.40;34.70;;;;;;5032123;28;19921;-68
2021/08/13 08:32:21;;;;;;;;;;;48.70;32.40;;;;;;5032502;28;19916;-68
2021/08/13 08:34:47;;;;;;;;;;;48.60;28.70;;;;;;5032597;28;19917;-68
2021/08/13 08:37:13;;;;;;;;;;;48.80;27.30;;;;;;5032457;28;20006;-68
2021/08/13 08:39:38;;;;;;;;;;;48.90;25.20;;;;;;5031822;28;19919;-68
2021/08/13 08:42:10;;;;;;;;;;;49.10;23.10;;;;;;5032901;28;19971;-68
2021/08/13 08:44:36;;;;;;;;;;;49.40;21.70;;;;;;5032166;28;19964;-68
2021/08/13 08:47:02;;;;;;;;;;;49.50;19.80;;;;;;5032645;28;19913;-68
2021/08/13 08:49:29;;;;;;;;;;;49.20;17.50;;;;;;5031837;28;20028;-68
2021/08/13 08:51:55;;;;;;;;;;;47.90;14.20;;;;;;5032461;28;19909;-68
2021/08/13 08:54:22;;;;;;;;;;;46.70;11.90;;;;;;5032054;28;19948;-68
2021/08/13 08:56:48;;;;;;;;;;;45.80;11.40;;;;;;5032347;28;19909;-68
2021/08/13 08:59:14;;;;;;;;;;;44.60;9.90;;;;;;5031156;28;19920;-68
2021/08/13 09:01:39;;;;;;;;;;;43.00;9.30;;;;;;5031968;28;19956;-68
2021/08/13 09:04:05;;;;;;;;;;;41.50;10.90;;;;;;5032065;28;20266;-68
2021/08/13 09:06:30;;;;;;;;;;;39.90;11.90;;;;;;5031948;28;19962;-67
2021/08/13 09:08:56;;;;;;;;;;;39.30;14.80;;;;;;5030373;28;19959;-68
2021/08/13 09:11:22;;;;;;;;;;;39.20;18.10;;;;;;5031599;28;19910;-68
2021/08/13 09:14:07;;;;;;;;;;;39.30;20.50;;;;;;5031624;28;19909;-67
2021/08/13 09:16:32;;;;;;;;;;;39.40;23.10;;;;;;5031954;28;19909;-68
2021/08/13 09:18:59;;;;;;;;;;;39.80;26.30;;;;;;5031091;28;19971;-68
2021/08/13 09:21:25;;;;;;;;;;;41.50;28.80;;;;;;5031793;28;20297;-68
2021/08/13 09:23:52;;;;;;;;;;;43.30;30.80;;;;;;5031613;28;19913;-67
2021/08/13 09:26:20;;;;;;;;;;;44.80;32.80;;;;;;5031788;28;20003;-68
2021/08/13 09:28:48;;;;;;;;;;;45.70;32.50;;;;;;5030161;28;19917;-68
2021/08/13 09:31:16;;;;;;;;;;;46.00;30.70;;;;;;5031508;28;19917;-68
2021/08/13 09:33:42;;;;;;;;;;;46.50;29.70;;;;;;5031412;28;19913;-68
2021/08/13 09:36:10;;;;;;;;;;;46.70;28.20;;;;;;5031604;28;19909;-67
2021/08/13 09:38:35;;;;;;;;;;;46.90;27.20;;;;;;5030824;28;19915;-68
2021/08/13 09:41:04;;;;;;;;;;;46.60;24.80;;;;;;5031590;28;19913;-68
2021/08/13 09:43:30;;;;;;;;;;;45.90;23.10;;;;;;5029654;28;19909;-68
2021/08/13 09:46:06;;;;;;;;;;;45.00;21.20;;;;;;5031286;28;19917;-68
2021/08/13 09:48:32;;;;;;;;;;;44.60;21.40;;;;;;5030401;28;19910;-68
2021/08/13 09:50:57;;;;;;;;;;;45.40;22.50;;;;;;5031080;28;20004;-68
2021/08/13 09:53:23;;;;;;;;;;;45.60;22.30;;;;;;5031235;28;19924;-68
2021/08/13 09:55:49;;;;;;;;;;;45.30;21.90;;;;;;5031359;28;19909;-68
2021/08/13 09:58:25;;;;;;;;;;;45.30;21.20;;;;;;5030570;28;19910;-68
2021/08/13 10:00:51;;;;;;;;;;;45.40;21.40;;;;;;5031075;28;19920;-68
2021/08/13 10:03:17;;;;;;;;;;;45.60;21.40;;;;;;5031266;28;19913;-68
2021/08/13 10:05:42;;;;;;;;;;;44.80;20.00;;;;;;5031183;28;19913;-68
2021/08/13 10:08:08;;;;;;;;;;;44.70;20.30;;;;;;5030788;28;19987;-68
2021/08/13 10:10:35;;;;;;;;;;;44.90;31.00;;;;;;5029233;28;20389;-68
2021/08/13 10:13:01;;;;;;;;;;;45.20;21.10;;;;;;5030452;28;20401;-68
2021/08/13 10:15:36;;;;;;;;;;;45.80;21.50;;;;;;5029665;28;19913;-68
2021/08/13 10:18:05;;;;;;;;;;;46.70;21.80;;;;;;5030785;28;19963;-68
2021/08/13 10:20:33;;;;;;;;;;;47.60;22.30;;;;;;5031439;28;20310;-67
2021/08/13 10:22:59;;;;;;;;;;;47.60;20.00;;;;;;5030437;28;19924;-68
2021/08/13 10:25:24;;;;;;;;;;;48.10;19.60;;;;;;5031033;28;19909;-68
2021/08/13 10:27:50;;;;;;;;;;;48.60;18.90;;;;;;5030286;28;20055;-68
2021/08/13 10:30:16;;;;;;;;;;;49.00;18.00;;;;;;5031066;28;19925;-68
2021/08/13 10:32:42;;;;;;;;;;;48.90;16.60;;;;;;5031365;28;19987;-68
2021/08/13 10:35:08;;;;;;;;;;;49.30;15.30;;;;;;5030906;28;19912;-69
2021/08/13 10:37:34;;;;;;;;;;;50.00;14.90;;;;;;5030432;28;20079;-68
2021/08/13 10:40:00;;;;;;;;;;;49.80;12.60;;;;;;5030791;28;19924;-69
2021/08/13 10:42:26;;;;;;;;;;;48.10;9.30;;;;;;5030933;28;19913;-68
2021/08/13 10:44:54;;;;;;;;;;;47.10;7.70;;;;;;5030598;28;20286;-68
2021/08/13 10:47:26;;;;;;;;;;;46.00;7.10;;;;;;5030243;28;19920;-68
2021/08/13 10:49:52;;;;;;;;;;;45.70;7.60;;;;;;5030718;28;19983;-68
2021/08/13 10:52:30;;;;;;;;;;;45.60;8.80;;;;;;5030910;28;19909;-68
2021/08/13 10:54:56;;;;;;;;;;;44.90;8.70;;;;;;5030820;28;19913;-67
2021/08/13 10:57:41;;;;;;;;;;;43.90;8.90;;;;;;5030164;28;19932;-67
2021/08/13 11:00:07;;;;;;;;;;;43.50;9.40;;;;;;5030852;28;20203;-68
2021/08/13 11:02:33;;;;;;;;;;;43.50;11.90;;;;;;5030721;28;20055;-67
2021/08/13 11:04:58;;;;;;;;;;;44.00;12.60;;;;;;5030903;28;19948;-68
2021/08/13 11:07:43;;;;;;;;;;;44.00;13.70;;;;;;5029895;28;19913;-67
2021/08/13 11:10:28;;;;;;;;;;;43.30;13.90;;;;;;5030413;28;19910;-68
2021/08/13 11:13:12;;;;;;;;;;;43.00;16.70;;;;;;5030030;28;19909;-68
2021/08/13 11:15:38;;;;;;;;;;;43.00;19.40;;;;;;5030612;28;19920;-68
2021/08/13 11:18:22;;;;;;;;;;;43.30;20.80;;;;;;5029597;28;19939;-68
2021/08/13 11:20:48;;;;;;;;;;;43.20;20.40;;;;;;5030217;28;19913;-67
2021/08/13 11:23:13;;;;;;;;;;;41.90;20.10;;;;;;5028865;28;19909;-67
2021/08/13 11:25:52;;;;;;;;;;;41.80;21.50;;;;;;5029947;28;19909;-67
2021/08/13 11:28:27;;;;;;;;;;;41.30;21.40;;;;;;5029263;28;19916;-67
2021/08/13 11:30:57;;;;;;;;;;;40.90;22.80;;;;;;5030178;28;20016;-68
2021/08/13 11:33:23;;;;;;;;;;;40.70;24.80;;;;;;5032319;28;19924;-68
2021/08/13 11:35:48;;;;;;;;;;;40.40;25.90;;;;;;5033675;28;19909;-68
2021/08/13 11:38:14;;;;;;;;;;;39.80;26.30;;;;;;5033270;28;19936;-68
2021/08/13 11:40:40;;;;;;;;;;;39.00;27.30;;;;;;5033618;28;19914;-68
2021/08/13 11:43:05;;;;;;;;;;;38.30;28.50;;;;;;5033264;28;19913;-68
2021/08/13 11:45:35;;;;;;;;;;;37.70;42.90;;;;;;5033481;28;19909;-68
2021/08/13 11:48:02;;;;;;;;;;;37.00;32.40;;;;;;5032953;28;19909;-67
2021/08/13 11:50:28;;;;;;;;;;;36.40;35.90;;;;;;5033766;28;19963;-68
2021/08/13 11:52:53;;;;;;;;;;;36.10;39.50;;;;;;5033631;28;19963;-68
2021/08/13 11:55:21;;;;;;;;;;;36.00;42.40;;;;;;5033513;28;19988;-68
2021/08/13 11:57:47;;;;;;;;;;;36.00;46.00;;;;;;5032314;28;20050;-67
2021/08/13 12:00:23;;;;;;;;;;;36.30;48.40;;;;;;5033597;28;20344;-68
2021/08/13 12:02:55;;;;;;;;;;;36.60;51.80;;;;;;5033503;28;20078;-68
2021/08/13 12:05:20;;;;;;;;;;;37.20;54.10;;;;;;5033453;28;19942;-67
2021/08/13 12:07:55;;;;;;;;;;;37.70;55.80;;;;;;5032340;28;19909;-68
2021/08/13 12:10:21;;;;;;;;;;;38.00;57.60;;;;;;5033368;28;19910;-68
2021/08/13 12:12:46;;;;;;;;;;;38.50;58.90;;;;;;5032834;28;20329;-68
2021/08/13 12:15:12;;;;;;;;;;;38.80;59.40;;;;;;5033418;28;20362;-68
2021/08/13 12:17:38;;;;;;;;;;;39.10;59.30;;;;;;5032485;28;19931;-67
2021/08/13 12:20:05;;;;;;;;;;;39.40;59.00;;;;;;5032662;28;19913;-68
2021/08/13 12:22:31;;;;;;;;;;;39.30;58.20;;;;;;5032821;28;19999;-68
2021/08/13 12:24:56;;;;;;;;;;;39.40;58.30;;;;;;5032792;28;20029;-68
2021/08/13 12:27:26;;;;;;;;;;;39.30;58.80;;;;;;5032506;28;20378;-67
2021/08/13 12:32:19;;;;;;;;;;;39.00;57.60;;;;;;5031723;28;19924;-67
2021/08/13 12:34:51;;;;;;;;;;;38.80;56.60;;;;;;5033151;28;19916;-67
2021/08/13 12:37:20;;;;;;;;;;;38.60;56.60;;;;;;5032419;28;19967;-65
2021/08/13 12:39:45;;;;;;;;;;;38.20;56.20;;;;;;5032629;28;19964;-65
2021/08/13 12:42:13;;;;;;;;;;;38.00;56.80;;;;;;5032428;28;20377;-65
2021/08/13 12:44:39;;;;;;;;;;;37.70;57.30;;;;;;5032134;28;19917;-65
2021/08/13 12:47:06;;;;;;;;;;;37.40;58.00;;;;;;5032899;28;19909;-66
2021/08/13 12:49:33;;;;;;;;;;;37.10;59.50;;;;;;5031863;28;19916;-66
2021/08/13 12:52:12;;;;;;;;;;;36.50;59.30;;;;;;5032262;28;20004;-66
2021/08/13 12:54:38;;;;;;;;;;;36.30;60.10;;;;;;5032551;28;20262;-66
2021/08/13 12:57:05;;;;;;;;;;;35.80;61.70;;;;;;5032693;28;19935;-66
2021/08/13 12:59:34;;;;;;;;;;;35.50;63.50;;;;;;5031712;28;19913;-66
2021/08/13 13:02:00;;;;;;;;;;;35.20;66.90;;;;;;5032115;28;20282;-66
2021/08/13 13:04:39;;;;;;;;;;;35.00;70.50;;;;;;5032271;28;19959;-66
2021/08/13 13:07:05;;;;;;;;;;;34.70;72.30;;;;;;5032636;28;20032;-66
2021/08/13 13:09:32;;;;;;;;;;;34.40;77.00;;;;;;5031862;28;19949;-67
2021/08/13 13:12:16;;;;;;;;;;;34.40;78.70;;;;;;5033425;28;20253;-66
2021/08/13 13:14:42;;;;;;;;;;;34.40;81.00;;;;;;5031881;28;19963;-66
2021/08/13 13:17:08;;;;;;;;;;;34.70;83.80;;;;;;5031940;28;20332;-66
2021/08/13 13:19:35;;;;;;;;;;;34.80;83.80;;;;;;5031447;28;19999;-66
2021/08/13 13:22:13;;;;;;;;;;;34.80;86.90;;;;;;5032442;28;19909;-67
2021/08/13 13:24:39;;;;;;;;;;;34.80;88.90;;;;;;5031693;28;19916;-67
2021/08/13 13:27:04;;;;;;;;;;;34.80;90.00;;;;;;5031709;28;19913;-67
2021/08/13 13:29:34;;;;;;;;;;;34.80;90.50;;;;;;5031756;28;19909;-67
2021/08/13 13:32:09;;;;;;;;;;;34.60;91.70;;;;;;5031903;28;20027;-67
2021/08/13 13:34:35;;;;;;;;;;;34.70;92.10;;;;;;5031704;28;19928;-67
2021/08/13 13:37:10;;;;;;;;;;;34.80;93.00;;;;;;5032183;28;19909;-66
2021/08/13 13:39:36;;;;;;;;;;;35.00;93.40;;;;;;5031199;28;19920;-66
2021/08/13 13:42:03;;;;;;;;;;;35.00;93.90;;;;;;5030966;28;20221;-66
2021/08/13 13:44:28;;;;;;;;;;;35.10;93.90;;;;;;5031169;28;19963;-66
2021/08/13 13:46:54;;;;;;;;;;;35.10;93.80;;;;;;5031985;28;19910;-66
2021/08/13 13:49:19;;;;;;;;;;;35.10;93.60;;;;;;5030781;28;19909;-67
2021/08/13 13:51:45;;;;;;;;;;;35.10;93.90;;;;;;5031429;28;19916;-67
2021/08/13 13:54:10;;;;;;;;;;;35.00;94.00;;;;;;5031648;28;19912;-67
2021/08/13 13:56:36;;;;;;;;;;;34.90;93.80;;;;;;5030867;28;19949;-67
2021/08/13 13:59:01;;;;;;;;;;;34.80;93.80;;;;;;5030741;28;19913;-66
2021/08/13 14:01:27;;;;;;;;;;;34.60;94.30;;;;;;5031621;28;19909;-67
2021/08/13 14:03:52;;;;;;;;;;;34.40;94.60;;;;;;5031139;28;19964;-67
2021/08/13 14:06:18;;;;;;;;;;;34.30;94.80;;;;;;5031457;28;19916;-67
2021/08/13 14:08:48;;;;;;;;;;;34.40;95.40;;;;;;5030371;28;19913;-67
2021/08/13 14:11:13;;;;;;;;;;;34.50;96.30;;;;;;5030923;28;19916;-67
2021/08/13 14:13:39;;;;;;;;;;;34.60;96.80;;;;;;5030803;28;20346;-67
2021/08/13 14:16:04;;;;;;;;;;;34.60;96.40;;;;;;5031351;28;19909;-67
2021/08/13 14:18:30;;;;;;;;;;;34.60;96.70;;;;;;5030590;28;20386;-67
2021/08/13 14:20:55;;;;;;;;;;;34.50;96.40;;;;;;5030775;28;19952;-67